createdAt,value
2018-07-30T00:02:33.662Z,100224.16
2018-07-30T00:07:37.697Z,100227.39
2018-07-30T00:12:41.679Z,100220.75
2018-07-30T00:17:45.424Z,100216.17
2018-07-30T00:22:49.434Z,100213.97
2018-07-30T00:27:53.529Z,100211.09
2018-07-30T00:32:57.574Z,100218.89
2018-07-30T00:38:01.441Z,100216.68
2018-07-30T00:43:05.710Z,100222.47
2018-07-30T00:48:09.889Z,100224.30
2018-07-30T00:53:14.313Z,100226.87
2018-07-30T00:58:18.603Z,100227.70
2018-07-30T01:03:23.711Z,100213.32
2018-07-30T01:08:27.474Z,100214.45
2018-07-30T01:13:31.404Z,100215.33
2018-07-30T01:18:35.265Z,100218.55
2018-07-30T01:23:39.181Z,100216.36
2018-07-30T01:28:43.562Z,100220.44
2018-07-30T01:33:47.398Z,100222.11
2018-07-30T01:38:51.815Z,100220.07
2018-07-30T01:43:55.584Z,100226.00
2018-07-30T01:48:59.404Z,100238.84
2018-07-30T01:54:03.304Z,100235.32
2018-07-30T01:59:07.291Z,100243.99
2018-07-30T02:04:11.299Z,100239.53
2018-07-30T02:09:15.178Z,100247.55
2018-07-30T02:14:19.228Z,100239.72
2018-07-30T02:19:23.021Z,100234.10
2018-07-30T02:24:26.977Z,100234.47
2018-07-30T02:29:30.837Z,100225.47
2018-07-30T02:34:34.761Z,100230.68
2018-07-30T02:39:38.589Z,100224.25
2018-07-30T02:44:42.516Z,100233.77
2018-07-30T02:49:48.512Z,100241.69
2018-07-30T02:54:52.447Z,100242.34
2018-07-30T02:59:56.301Z,100245.59
2018-07-30T03:05:03.834Z,100253.34
2018-07-30T03:10:08.351Z,100256.55
2018-07-30T03:15:12.203Z,100263.59
2018-07-30T03:20:17.240Z,100256.27
2018-07-30T03:25:21.096Z,100251.02
2018-07-30T03:30:24.938Z,100251.52
2018-07-30T03:35:28.752Z,100252.03
2018-07-30T03:40:32.498Z,100245.55
2018-07-30T03:45:36.248Z,100245.94
2018-07-30T03:50:40.000Z,100255.98
2018-07-30T03:55:43.761Z,100261.13
2018-07-30T04:00:47.453Z,100258.23
2018-07-30T04:05:51.473Z,100265.86
2018-07-30T04:10:56.968Z,100284.42
2018-07-30T04:16:00.984Z,100281.45
2018-07-30T04:21:04.881Z,100280.88
2018-07-30T04:26:08.730Z,100286.32
2018-07-30T04:31:12.660Z,100284.77
2018-07-30T04:36:16.472Z,100277.13
2018-07-30T04:41:20.299Z,100277.28
2018-07-30T04:46:24.537Z,100276.17
2018-07-30T04:51:28.509Z,100272.47
2018-07-30T04:56:32.368Z,100275.64
2018-07-30T05:01:36.097Z,100275.91
2018-07-30T05:06:39.794Z,100285.71
2018-07-30T05:11:43.485Z,100285.44
2018-07-30T05:16:48.210Z,100285.91
2018-07-30T05:21:51.945Z,100288.88
2018-07-30T05:26:55.600Z,100295.82
2018-07-30T05:31:59.307Z,100307.09
2018-07-30T05:37:03.050Z,100309.70
2018-07-30T05:42:06.787Z,100306.80
2018-07-30T05:47:10.423Z,100309.44
2018-07-30T05:52:14.055Z,100316.00
2018-07-30T05:57:17.705Z,100317.50
2018-07-30T06:02:21.328Z,100312.25
2018-07-30T06:07:24.943Z,100315.59
2018-07-30T06:12:28.669Z,100319.88
2018-07-30T06:17:32.289Z,100323.08
2018-07-30T06:22:36.114Z,100318.02
2018-07-30T06:27:41.829Z,100315.35
2018-07-30T06:32:45.503Z,100320.05
2018-07-30T06:37:49.182Z,100320.86
2018-07-30T06:42:52.880Z,100324.61
2018-07-30T06:47:57.356Z,100337.56
2018-07-30T06:53:01.103Z,100341.38
2018-07-30T06:58:05.049Z,100340.72
2018-07-30T07:03:08.991Z,100337.00
2018-07-30T07:08:12.884Z,100336.34
2018-07-30T07:13:17.306Z,100338.73
2018-07-30T07:18:21.595Z,100340.99
2018-07-30T07:23:29.391Z,100335.61
2018-07-30T07:28:33.186Z,100335.19
2018-07-30T07:33:36.894Z,100339.78
2018-07-30T07:38:42.275Z,100341.34
2018-07-30T07:43:45.952Z,100336.99
2018-07-30T07:48:49.805Z,100334.34
2018-07-30T07:53:53.525Z,100337.73
2018-07-30T07:58:57.506Z,100338.93
2018-07-30T08:04:01.266Z,100346.44
2018-07-30T08:09:07.201Z,100342.04
2018-07-30T08:14:10.874Z,100338.03
2018-07-30T08:19:14.880Z,100343.17
2018-07-30T08:24:19.679Z,100339.78
2018-07-30T08:29:24.917Z,100340.14
2018-07-30T08:34:28.664Z,100334.91
2018-07-30T08:39:32.573Z,100346.59
2018-07-30T08:44:36.366Z,100347.65
2018-07-30T08:49:40.241Z,100347.48
2018-07-30T08:54:44.308Z,100353.06
2018-07-30T08:59:48.101Z,100348.52
2018-07-30T09:04:51.822Z,100349.51
2018-07-30T09:09:55.577Z,100336.15
2018-07-30T09:14:59.590Z,100350.09
2018-07-30T09:20:06.198Z,100334.80
2018-07-30T09:25:09.914Z,100340.54
2018-07-30T09:30:13.558Z,100340.03
2018-07-30T09:35:17.198Z,100340.21
2018-07-30T09:40:20.822Z,100339.61
2018-07-30T09:45:24.648Z,100335.87
2018-07-30T09:50:28.540Z,100336.83
2018-07-30T09:55:32.293Z,100330.45
2018-07-30T10:01:16.158Z,100336.67
2018-07-30T10:06:19.909Z,100334.12
2018-07-30T10:11:23.495Z,100333.83
2018-07-30T10:16:27.238Z,100328.61
2018-07-30T10:21:30.923Z,100327.24
2018-07-30T10:26:35.391Z,100327.14
2018-07-30T10:31:39.080Z,100330.65
2018-07-30T10:36:42.715Z,100324.03
2018-07-30T10:41:46.364Z,100323.52
2018-07-30T10:46:50.183Z,100319.70
2018-07-30T10:51:53.875Z,100324.55
2018-07-30T10:56:57.612Z,100323.24
2018-07-30T11:02:01.520Z,100310.04
2018-07-30T11:07:05.212Z,100308.59
2018-07-30T11:12:08.899Z,100312.64
2018-07-30T11:17:12.667Z,100307.58
2018-07-30T11:22:16.404Z,100303.50
2018-07-30T11:27:20.055Z,100305.36
2018-07-30T11:32:23.827Z,100299.95
2018-07-30T11:37:28.311Z,100298.42
2018-07-30T11:42:31.986Z,100297.92
2018-07-30T11:47:35.717Z,100303.84
2018-07-30T11:52:39.423Z,100299.61
2018-07-30T11:57:43.128Z,100301.36
2018-07-30T12:02:46.772Z,100294.75
2018-07-30T12:07:50.500Z,100287.64
2018-07-30T12:12:54.697Z,100286.62
2018-07-30T12:17:58.411Z,100289.67
2018-07-30T12:23:02.118Z,100290.19
2018-07-30T12:28:06.065Z,100275.70
2018-07-30T12:33:10.068Z,100277.22
2018-07-30T12:38:13.872Z,100285.69
2018-07-30T12:43:17.649Z,100282.44
2018-07-30T12:48:21.389Z,100282.44
2018-07-30T12:53:26.109Z,100277.43
2018-07-30T12:58:29.802Z,100269.81
2018-07-30T13:03:33.542Z,100263.75
2018-07-30T13:08:37.203Z,100253.72
2018-07-30T13:13:41.015Z,100248.67
2018-07-30T13:18:44.747Z,100240.34
2018-07-30T13:23:48.888Z,100239.49
2018-07-30T13:28:52.547Z,100235.25
2018-07-30T13:33:56.220Z,100230.64
2018-07-30T13:39:00.046Z,100229.63
2018-07-30T13:44:04.106Z,100228.44
2018-07-30T13:49:08.149Z,100227.94
2018-07-30T13:54:11.952Z,100220.99
2018-07-30T13:59:16.930Z,100219.13
2018-07-30T14:04:21.268Z,100213.54
2018-07-30T14:09:24.952Z,100211.51
2018-07-30T14:14:28.795Z,100212.83
2018-07-30T14:19:33.059Z,100210.83
2018-07-30T14:24:36.885Z,100207.54
2018-07-30T14:29:40.646Z,100206.02
2018-07-30T14:34:44.321Z,100202.36
2018-07-30T14:39:48.149Z,100190.50
2018-07-30T14:44:51.842Z,100186.98
2018-07-30T14:49:55.578Z,100190.03
2018-07-30T14:55:04.077Z,100185.14
2018-07-30T15:00:09.378Z,100180.57
2018-07-30T15:05:13.243Z,100185.34
2018-07-30T15:10:17.050Z,100183.30
2018-07-30T15:15:20.709Z,100187.22
2018-07-30T15:20:24.594Z,100179.61
2018-07-30T15:25:28.527Z,100180.47
2018-07-30T15:30:32.350Z,100179.13
2018-07-30T15:35:35.998Z,100168.28
2018-07-30T15:40:40.009Z,100171.19
2018-07-30T15:45:43.977Z,100172.87
2018-07-30T15:50:47.861Z,100171.70
2018-07-30T15:55:52.791Z,100166.59
2018-07-30T16:00:56.595Z,100171.14
2018-07-30T16:06:00.500Z,100162.86
2018-07-30T16:11:04.273Z,100163.37
2018-07-30T16:16:08.856Z,100163.05
2018-07-30T16:21:12.645Z,100166.95
2018-07-30T16:26:16.464Z,100168.98
2018-07-30T16:31:20.372Z,100168.45
2018-07-30T16:36:24.210Z,100166.42
2018-07-30T16:41:27.978Z,100166.11
2018-07-30T16:46:31.825Z,100164.91
2018-07-30T16:51:35.760Z,100162.02
2018-07-30T16:56:39.816Z,100165.08
2018-07-30T17:01:43.736Z,100160.14
2018-07-30T17:06:47.635Z,100162.70
2018-07-30T17:11:51.503Z,100156.73
2018-07-30T17:16:55.346Z,100156.03
2018-07-30T17:21:59.109Z,100152.16
2018-07-30T17:27:02.830Z,100166.06
2018-07-30T17:32:06.499Z,100165.21
2018-07-30T17:37:10.410Z,100168.77
2018-07-30T17:42:14.233Z,100176.26
2018-07-30T17:47:18.170Z,100181.70
2018-07-30T17:52:21.923Z,100179.47
2018-07-30T17:57:26.013Z,100183.37
2018-07-30T18:02:30.102Z,100187.45
2018-07-30T18:07:33.860Z,100180.48
2018-07-30T18:12:37.993Z,100190.86
2018-07-30T18:17:42.027Z,100191.52
2018-07-30T18:22:45.880Z,100191.02
2018-07-30T18:27:50.197Z,100194.92
2018-07-30T18:32:54.277Z,100204.27
2018-07-30T18:37:58.179Z,100207.45
2018-07-30T18:43:01.883Z,100203.22
2018-07-30T18:48:05.922Z,100216.14
2018-07-30T18:53:09.629Z,100213.42
2018-07-30T18:58:14.001Z,100222.91
2018-07-30T19:03:17.906Z,100229.84
2018-07-30T19:08:21.625Z,100233.42
2018-07-30T19:13:25.364Z,100235.30
2018-07-30T19:18:29.066Z,100245.62
2018-07-30T19:23:32.790Z,100251.23
2018-07-30T19:28:36.446Z,100260.59
2018-07-30T19:33:40.169Z,100265.86
2018-07-30T19:38:44.009Z,100269.08
2018-07-30T19:43:47.681Z,100273.16
2018-07-30T19:48:51.464Z,100282.99
2018-07-30T19:53:56.040Z,100288.76
2018-07-30T19:58:59.921Z,100293.14
2018-07-30T20:04:03.707Z,100293.31
2018-07-30T20:09:10.261Z,100306.53
2018-07-30T20:14:14.146Z,100297.38
2018-07-30T20:19:17.822Z,100307.89
2018-07-30T20:24:21.711Z,100306.55
2018-07-30T20:29:25.823Z,100308.40
2018-07-30T20:34:29.745Z,100307.73
2018-07-30T20:39:33.634Z,100307.73
2018-07-30T20:44:37.581Z,100314.02
2018-07-30T20:49:41.490Z,100311.30
2018-07-30T20:54:45.467Z,100312.31
2018-07-30T20:59:49.418Z,100320.11
2018-07-30T21:04:53.600Z,100318.93
2018-07-30T21:09:57.614Z,100328.94
2018-07-30T21:15:02.710Z,100325.69
2018-07-30T21:20:06.746Z,100331.46
2018-07-30T21:25:10.532Z,100326.23
2018-07-30T21:30:14.268Z,100324.00
2018-07-30T21:35:17.906Z,100321.63
2018-07-30T21:40:21.683Z,100318.73
2018-07-30T21:45:25.562Z,100313.31
2018-07-30T21:50:29.222Z,100308.39
2018-07-30T21:55:32.954Z,100316.20
2018-07-30T22:00:36.635Z,100320.12
2018-07-30T22:05:40.429Z,100322.63
2018-07-30T22:10:44.122Z,100320.78
2018-07-30T22:15:48.037Z,100318.06
2018-07-30T22:20:51.730Z,100322.80
2018-07-30T22:25:55.526Z,100326.70
2018-07-30T22:30:59.226Z,100327.88
2018-07-30T22:36:02.925Z,100327.05
2018-07-30T22:41:06.671Z,100324.33
2018-07-30T22:46:10.530Z,100326.55
2018-07-30T22:51:14.434Z,100331.98
2018-07-30T22:56:18.216Z,100330.59
2018-07-30T23:01:21.882Z,100332.80
2018-07-30T23:06:25.610Z,100327.03
2018-07-30T23:11:29.346Z,100334.19
2018-07-30T23:16:33.061Z,100332.82
2018-07-30T23:21:36.803Z,100338.76
2018-07-30T23:26:41.772Z,100332.65
2018-07-30T23:31:45.456Z,100332.13
2018-07-30T23:36:49.120Z,100328.89
2018-07-30T23:41:52.797Z,100331.78
2018-07-30T23:46:56.430Z,100328.91
2018-07-30T23:52:00.105Z,100326.33
2018-07-30T23:57:03.719Z,100317.03
